Time;durP1;ratioP1;P1;durP2;ratioP2;P2;SDS_P1;SDS_P2;PMS_P1;PMS_P2;Temp;Humidity;BMP_temperature;BMP_pressure;BME280_temperature;BME280_humidity;BME280_pressure;Samples;Min_cycle;Max_cycle;Signal;HPM_P1;HPM_P2
2022/05/27 00:00:24;;;;;;;6.22;2.15;;;;;;;16.66;68.36;102031.41;5024738;28;20035;-74
2022/05/27 00:02:50;;;;;;;5.28;2.30;;;;;;;16.59;68.13;102023.47;5025282;28;20590;-74
2022/05/27 00:05:18;;;;;;;8.20;2.47;;;;;;;16.59;68.57;102014.81;5029304;28;20476;-74
2022/05/27 00:07:44;;;;;;;7.40;2.03;;;;;;;16.56;68.61;102023.41;5021189;28;20067;-74
2022/05/27 00:10:12;;;;;;;6.55;2.38;;;;;;;16.61;68.63;102024.38;5029071;28;20033;-74
2022/05/27 00:12:38;;;;;;;7.93;2.47;;;;;;;16.56;69.07;102026.03;5026528;28;20045;-74
2022/05/27 00:15:04;;;;;;;9.52;2.15;;;;;;;16.54;69.48;102011.22;5028701;28;20052;-74
2022/05/27 00:17:29;;;;;;;8.38;2.20;;;;;;;16.53;69.11;102007.75;5025947;28;20033;-74
2022/05/27 00:19:54;;;;;;;9.07;2.30;;;;;;;16.59;69.00;102010.50;5028704;28;20029;-74
2022/05/27 00:22:20;;;;;;;6.97;2.20;;;;;;;16.54;69.27;102011.22;5025550;28;20025;-74
2022/05/27 00:24:45;;;;;;;9.38;2.50;;;;;;;16.56;69.46;102006.94;5028686;28;20151;-74
2022/05/27 00:27:11;;;;;;;9.07;2.22;;;;;;;16.60;69.00;102020.03;5024997;28;20490;-74
2022/05/27 00:29:37;;;;;;;8.40;2.35;;;;;;;16.55;69.25;102011.25;5023080;28;20036;-75
2022/05/27 00:32:04;;;;;;;9.50;2.55;;;;;;;16.56;69.25;102013.03;5021667;28;20492;-73
2022/05/27 00:34:29;;;;;;;6.82;2.47;;;;;;;16.49;69.76;102018.91;5024937;28;20036;-74
2022/05/27 00:36:55;;;;;;;9.20;2.38;;;;;;;16.52;69.96;102015.53;5022583;28;20029;-75
2022/05/27 00:39:20;;;;;;;7.60;2.33;;;;;;;16.45;69.90;102009.31;5027730;28;20033;-74
2022/05/27 00:41:46;;;;;;;7.00;2.42;;;;;;;16.44;70.05;102012.78;5021516;28;20132;-74
2022/05/27 00:44:11;;;;;;;6.88;2.55;;;;;;;16.46;70.54;102015.38;5026623;28;20029;-74
2022/05/27 00:46:40;;;;;;;10.55;2.55;;;;;;;16.48;70.02;102008.50;5021260;28;20125;-74
2022/05/27 00:49:14;;;;;;;7.43;2.60;;;;;;;16.47;70.64;102004.16;5023222;28;20044;-74
2022/05/27 00:51:53;;;;;;;11.68;3.00;;;;;;;16.46;70.23;102011.06;5024805;28;20057;-74
2022/05/27 00:54:22;;;;;;;14.73;2.92;;;;;;;16.42;70.63;102009.25;5025578;28;20025;-74
2022/05/27 00:56:54;;;;;;;9.23;2.88;;;;;;;16.40;71.23;101992.75;5024600;28;20022;-75
2022/05/27 00:59:28;;;;;;;10.30;2.95;;;;;;;16.41;71.98;102002.31;5026129;28;20025;-75
2022/05/27 01:01:54;;;;;;;9.60;2.65;;;;;;;16.40;73.03;102002.28;5027945;28;20104;-74
2022/05/27 01:04:20;;;;;;;9.48;3.08;;;;;;;16.39;73.49;102001.41;5026135;28;20128;-74
2022/05/27 01:06:46;;;;;;;7.80;2.83;;;;;;;16.43;73.84;102000.59;5028427;28;20030;-75
2022/05/27 01:09:13;;;;;;;9.98;2.92;;;;;;;16.35;74.91;101999.56;5025317;28;20044;-75
2022/05/27 01:11:47;;;;;;;11.07;2.90;;;;;;;16.36;74.66;101996.13;5021284;28;20553;-74
2022/05/27 01:14:54;;;;;;;10.77;3.67;;;;;;;16.38;74.49;102002.25;5023351;28;20037;-74
2022/05/27 01:17:55;;;;;;;9.27;3.70;;;;;;;16.40;74.55;102000.56;5023346;28;20049;-74
2022/05/27 01:20:33;;;;;;;13.15;3.60;;;;;;;16.32;75.66;101997.78;5021379;28;20034;-75
2022/05/27 01:23:17;;;;;;;11.02;3.83;;;;;;;16.27;76.62;101998.53;5021883;28;20029;-75
2022/05/27 01:26:01;;;;;;;12.05;3.50;;;;;;;16.34;75.90;101996.09;5016357;28;20131;-75
2022/05/27 01:28:46;;;;;;;13.48;3.60;;;;;;;16.32;75.80;101994.31;5018804;28;20028;-74
2022/05/27 01:31:14;;;;;;;11.50;3.42;;;;;;;16.30;77.88;101995.97;5018294;28;20504;-75
2022/05/27 01:33:59;;;;;;;10.35;3.25;;;;;;;16.26;77.35;102000.25;5018751;28;20036;-75
2022/05/27 01:36:47;;;;;;;8.88;3.88;;;;;;;16.23;77.88;101996.69;5027593;28;20095;-74
2022/05/27 01:39:21;;;;;;;9.95;3.70;;;;;;;16.23;77.94;101996.69;5025130;28;20132;-74
2022/05/27 01:42:17;;;;;;;11.48;4.13;;;;;;;16.22;78.61;101992.34;5023094;28;20041;-74
2022/05/27 01:45:18;;;;;;;10.27;3.83;;;;;;;16.19;77.93;101994.84;5019365;28;20091;-74
2022/05/27 01:47:49;;;;;;;11.35;4.03;;;;;;;16.10;79.49;101992.94;5020603;28;20052;-74
2022/05/27 01:50:34;;;;;;;13.77;4.43;;;;;;;16.09;79.60;101994.66;5023991;28;20065;-72
2022/05/27 01:53:08;;;;;;;13.32;4.32;;;;;;;16.04;80.29;101993.69;5026714;28;20111;-73
2022/05/27 01:55:53;;;;;;;11.25;3.78;;;;;;;16.12;79.72;101998.16;5018603;28;20022;-73
2022/05/27 01:58:33;;;;;;;11.73;4.57;;;;;;;16.07;80.10;101998.03;5020522;28;20033;-73
2022/05/27 02:00:58;;;;;;;9.88;4.15;;;;;;;16.00;81.36;101993.56;5021543;28;20099;-74
2022/05/27 02:03:37;;;;;;;13.27;4.93;;;;;;;16.01;80.78;101985.81;5029327;28;20029;-74
2022/05/27 02:06:10;;;;;;;;;;;;;;;16.16;78.81;102006.06;5022151;28;20091;-74
2022/05/27 02:08:49;;;;;;;13.88;5.32;;;;;;;16.01;81.27;102013.47;5015911;28;19928;-73
2022/05/27 02:11:20;;;;;;;13.60;4.88;;;;;;;15.96;81.96;102018.56;5018588;28;20045;-73
2022/05/27 02:14:00;;;;;;;13.35;4.80;;;;;;;15.95;81.81;102019.38;5022916;28;20475;-74
2022/05/27 02:16:39;;;;;;;11.00;4.60;;;;;;;15.88;82.56;102016.59;5021074;28;20025;-74
2022/05/27 02:19:08;;;;;;;;;;;;;;;16.07;79.54;102017.09;5028453;28;20033;-74
2022/05/27 02:21:47;;;;;;;5.13;1.85;;;;;;;15.87;79.60;102013.13;5022903;28;20284;-74
2022/05/27 02:24:36;;;;;;;4.07;1.80;;;;;;;15.78;79.90;102013.81;5023620;28;20049;-72
2022/05/27 02:27:06;;;;;;;6.05;2.00;;;;;;;15.69;80.51;102008.38;5019896;28;20026;-69
2022/05/27 02:29:33;;;;;;;5.53;1.63;;;;;;;15.63;80.96;102017.72;5021088;28;20116;-69
2022/05/27 02:32:26;;;;;;;7.38;3.10;;;;;;;15.65;80.20;102014.34;5023016;28;20055;-69
2022/05/27 02:35:09;;;;;;;7.03;1.60;;;;;;;15.55;81.28;102009.72;5007591;28;20049;-70
2022/05/27 02:37:58;;;;;;;5.38;1.88;;;;;;;15.59;81.00;102001.16;5011261;28;20026;-70
2022/05/27 02:40:35;;;;;;;3.92;1.58;;;;;;;15.55;80.76;101995.03;5021640;28;20048;-70
2022/05/27 02:43:13;;;;;;;9.30;1.90;;;;;;;15.54;81.32;101993.28;5023140;28;20545;-71
2022/05/27 02:45:44;;;;;;;3.88;1.65;;;;;;;15.45;82.70;101995.63;5019658;28;20030;-71
2022/05/27 02:48:22;;;;;;;6.82;2.20;;;;;;;15.50;82.08;101996.63;5019191;28;20033;-71
2022/05/27 02:50:47;;;;;;;6.88;1.80;;;;;;;15.46;81.16;101989.59;5019325;28;20101;-70
2022/05/27 02:53:27;;;;;;;4.78;1.60;;;;;;;15.50;81.50;101995.75;5025594;28;20037;-70
2022/05/27 02:56:04;;;;;;;6.18;1.90;;;;;;;15.43;81.35;101999.91;5019320;28;20029;-71
2022/05/27 02:58:31;;;;;;;7.72;1.90;;;;;;;15.29;82.13;102007.31;5023755;28;20025;-70
2022/05/27 03:00:57;;;;;;;5.45;1.98;;;;;;;15.33;81.80;102000.47;5023994;28;20025;-70
2022/05/27 03:03:23;;;;;;;5.80;1.90;;;;;;;15.26;81.55;101993.38;5024411;28;20045;-70
2022/05/27 03:06:25;;;;;;;3.55;1.40;;;;;;;15.32;80.66;101992.69;5024073;28;20566;-70
2022/05/27 03:09:19;;;;;;;7.03;1.90;;;;;;;15.30;80.82;101992.66;5025160;28;20029;-71
2022/05/27 03:12:05;;;;;;;4.30;1.38;;;;;;;15.26;81.47;101993.38;5021911;28;20057;-71
2022/05/27 03:14:59;;;;;;;4.65;1.67;;;;;;;15.29;81.82;102003.84;5017535;28;20129;-71
2022/05/27 03:17:42;;;;;;;4.10;1.67;;;;;;;15.21;84.29;102007.94;5023712;28;20034;-70
2022/05/27 03:20:28;;;;;;;2.78;1.60;;;;;;;15.29;83.29;101998.66;5018367;28;20091;-70
2022/05/27 03:23:10;;;;;;;4.88;1.70;;;;;;;15.29;84.39;101988.31;5024831;28;20030;-70
2022/05/27 03:25:48;;;;;;;5.32;1.80;;;;;;;15.20;84.20;101978.56;5017256;28;20049;-71
2022/05/27 03:28:19;;;;;;;5.40;1.92;;;;;;;15.18;84.10;101982.81;5018745;28;20036;-71
2022/05/27 03:30:48;;;;;;;3.58;1.80;;;;;;;15.22;84.97;101978.59;5019932;28;20030;-71
2022/05/27 03:33:31;;;;;;;4.20;1.83;;;;;;;15.26;84.06;101970.94;5022672;28;20041;-71
2022/05/27 03:36:02;;;;;;;5.57;2.00;;;;;;;15.24;83.80;101987.28;5020458;28;20037;-71
2022/05/27 03:38:38;;;;;;;4.70;1.60;;;;;;;15.25;83.60;101978.69;5019972;28;20118;-72
2022/05/27 03:41:26;;;;;;;4.57;1.70;;;;;;;15.26;84.03;101989.06;5019718;28;20079;-72
2022/05/27 03:43:53;;;;;;;4.30;1.88;;;;;;;15.23;84.42;101988.13;5017821;28;20107;-72
2022/05/27 03:46:38;;;;;;;4.85;2.03;;;;;;;15.23;84.88;101990.72;5021171;28;20063;-72
2022/05/27 03:49:05;;;;;;;5.47;2.20;;;;;;;15.26;84.01;101977.84;5023522;28;20034;-72
2022/05/27 03:51:37;;;;;;;5.07;2.08;;;;;;;15.24;84.24;101984.72;5021208;28;20647;-72
2022/05/27 03:54:06;;;;;;;6.43;1.92;;;;;;;15.22;84.23;101987.22;5021200;28;20033;-72
2022/05/27 03:56:35;;;;;;;4.20;2.22;;;;;;;15.17;84.92;101991.44;5019826;28;20068;-71
2022/05/27 03:59:02;;;;;;;6.07;2.30;;;;;;;15.22;85.05;101978.59;5021810;28;20052;-72
2022/05/27 04:01:29;;;;;;;5.70;2.22;;;;;;;15.17;85.04;101978.47;5024540;28;20029;-71
2022/05/27 04:03:56;;;;;;;5.38;2.20;;;;;;;15.21;85.39;101984.59;5025008;28;20104;-72
2022/05/27 04:06:22;;;;;;;4.25;2.15;;;;;;;15.21;85.21;101982.00;5024075;28;20037;-71
2022/05/27 04:08:48;;;;;;;5.53;2.30;;;;;;;15.23;85.36;101978.66;5023430;28;20060;-72
2022/05/27 04:11:13;;;;;;;8.07;2.35;;;;;;;15.22;85.34;101987.22;5020461;28;20057;-71
2022/05/27 04:13:40;;;;;;;5.15;2.60;;;;;;;15.23;85.65;101989.00;5023936;28;20519;-71
2022/05/27 04:16:05;;;;;;;5.97;2.15;;;;;;;15.21;85.08;101994.97;5026273;28;20041;-72
2022/05/27 04:18:30;;;;;;;4.90;2.55;;;;;;;15.22;85.63;101994.13;5029910;28;20033;-72
2022/05/27 04:20:56;;;;;;;6.10;2.30;;;;;;;15.13;85.71;101999.94;5020450;28;20162;-72
2022/05/27 04:23:21;;;;;;;6.78;3.00;;;;;;;15.20;86.60;102006.19;5025807;28;20076;-71
2022/05/27 04:25:48;;;;;;;8.23;2.33;;;;;;;15.20;86.90;102011.34;5023001;28;20058;-72
2022/05/27 04:28:14;;;;;;;6.93;2.88;;;;;;;15.22;87.25;102002.78;5027882;28;20064;-71
2022/05/27 04:30:40;;;;;;;6.05;2.70;;;;;;;15.23;87.31;102008.88;5021955;28;20025;-72
2022/05/27 04:33:05;;;;;;;8.68;3.28;;;;;;;15.27;88.23;102002.91;5022666;28;20108;-72
2022/05/27 04:35:30;;;;;;;9.13;3.20;;;;;;;15.29;88.30;101999.53;5023559;28;20117;-71
2022/05/27 04:37:56;;;;;;;5.95;3.30;;;;;;;15.31;88.54;101999.56;5023931;28;20026;-71
2022/05/27 04:40:21;;;;;;;8.60;3.45;;;;;;;15.31;89.15;102009.06;5018857;28;20121;-72
2022/05/27 04:42:47;;;;;;;8.32;4.00;;;;;;;15.34;89.46;102004.81;5020276;28;20088;-71
2022/05/27 04:45:12;;;;;;;8.68;3.80;;;;;;;15.35;89.85;102001.44;5021341;28;20076;-72
2022/05/27 04:47:38;;;;;;;11.02;4.90;;;;;;;15.32;90.28;102006.50;5023347;28;20465;-71
2022/05/27 04:50:07;;;;;;;9.07;4.40;;;;;;;15.39;90.35;102008.41;5022544;28;20475;-72
2022/05/27 04:52:32;;;;;;;14.10;4.97;;;;;;;15.44;90.28;102005.97;5027371;28;20045;-72
2022/05/27 04:55:02;;;;;;;13.68;5.38;;;;;;;15.49;89.83;102010.44;5019933;28;20095;-72
2022/05/27 04:57:32;;;;;;;13.23;5.32;;;;;;;15.55;90.62;102014.91;5030082;28;20017;-71
2022/05/27 04:59:58;;;;;;;14.00;5.95;;;;;;;15.56;90.27;102012.34;5022659;28;20057;-71
2022/05/27 05:02:24;;;;;;;12.07;5.30;;;;;;;15.56;91.06;102007.16;5025603;28;20380;-71
2022/05/27 05:04:51;;;;;;;15.60;5.75;;;;;;;15.64;90.31;102012.56;5020806;28;20590;-72
2022/05/27 05:07:20;;;;;;;17.00;5.72;;;;;;;15.66;91.53;102016.09;5019459;28;20084;-72
2022/05/27 05:09:46;;;;;;;17.13;5.97;;;;;;;15.66;91.33;102017.81;5022790;28;20460;-72
2022/05/27 05:12:12;;;;;;;13.23;5.70;;;;;;;15.69;90.98;102007.50;5021888;28;20048;-72
2022/05/27 05:14:39;;;;;;;15.10;5.97;;;;;;;15.68;90.96;102011.81;5025941;28;20088;-71
2022/05/27 05:17:05;;;;;;;12.25;4.95;;;;;;;15.72;90.79;102028.34;5024516;28;20068;-72
2022/05/27 05:19:30;;;;;;;14.32;5.30;;;;;;;15.73;90.79;102018.00;5020868;28;20033;-72
2022/05/27 05:21:56;;;;;;;16.10;5.13;;;;;;;15.73;90.68;102018.00;5022715;28;20388;-72
2022/05/27 05:24:22;;;;;;;17.60;5.22;;;;;;;15.78;90.32;102028.50;5025595;28;20041;-71
2022/05/27 05:26:47;;;;;;;17.38;5.32;;;;;;;15.77;90.40;102032.81;5022011;28;20083;-71
2022/05/27 05:29:13;;;;;;;15.60;4.57;;;;;;;15.75;89.66;102033.59;5027546;28;20079;-71
2022/05/27 05:31:38;;;;;;;17.35;5.03;;;;;;;15.76;90.31;102041.38;5027289;28;20495;-71
2022/05/27 05:34:04;;;;;;;17.80;5.45;;;;;;;15.81;90.59;102038.94;5024430;28;21066;-71
2022/05/27 05:36:31;;;;;;;16.73;4.90;;;;;;;15.85;89.59;102042.47;5022601;28;20030;-71
2022/05/27 05:38:57;;;;;;;14.57;4.68;;;;;;;15.81;89.34;102050.16;5021331;28;20025;-71
2022/05/27 05:41:28;;;;;;;15.05;4.50;;;;;;;15.87;89.71;102048.56;5014744;28;20033;-72
2022/05/27 05:43:54;;;;;;;13.35;4.40;;;;;;;15.89;89.01;102052.94;5023509;28;20038;-72
2022/05/27 05:46:19;;;;;;;13.63;4.60;;;;;;;15.93;88.30;102053.91;5016901;28;20435;-71
2022/05/27 05:48:45;;;;;;;15.43;4.50;;;;;;;15.95;88.05;102066.06;5023304;28;20029;-72
2022/05/27 05:51:10;;;;;;;14.73;4.45;;;;;;;15.90;88.05;102062.50;5016770;28;20112;-71
2022/05/27 05:53:36;;;;;;;9.10;3.28;;;;;;;15.85;84.72;102058.91;5020308;28;20049;-72
2022/05/27 05:56:01;;;;;;;12.38;3.28;;;;;;;15.85;85.30;102051.13;5022364;28;20025;-72
2022/05/27 05:58:27;;;;;;;12.40;3.40;;;;;;;15.88;84.53;102055.50;5020664;28;20049;-72
2022/05/27 06:00:52;;;;;;;11.82;3.13;;;;;;;15.91;83.69;102064.25;5023749;28;20037;-72
2022/05/27 06:03:17;;;;;;;9.25;3.00;;;;;;;15.91;83.40;102065.97;5024236;28;20033;-72
2022/05/27 06:05:43;;;;;;;9.02;2.88;;;;;;;15.89;83.04;102068.50;5005094;28;20046;-72
2022/05/27 06:08:10;;;;;;;10.82;2.58;;;;;;;15.86;81.67;102071.03;5016531;28;20026;-72
2022/05/27 06:10:36;;;;;;;11.88;2.88;;;;;;;15.87;83.06;102069.31;5019413;28;20586;-72
2022/05/27 06:13:02;;;;;;;11.13;2.80;;;;;;;15.82;82.51;102062.28;5025320;28;20475;-72
2022/05/27 06:15:28;;;;;;;10.02;2.35;;;;;;;15.88;82.23;102071.94;5024258;28;20089;-72
2022/05/27 06:17:53;;;;;;;13.93;3.20;;;;;;;15.89;83.10;102060.72;5025155;28;20149;-72
2022/05/27 06:20:19;;;;;;;8.27;2.78;;;;;;;15.94;82.62;102072.09;5019802;28;21994;-72
2022/05/27 06:22:44;;;;;;;7.22;2.47;;;;;;;15.96;81.34;102073.03;5020457;28;20029;-72
2022/05/27 06:25:11;;;;;;;10.00;2.40;;;;;;;16.03;80.51;102080.13;5020004;28;20025;-72
2022/05/27 06:27:36;;;;;;;7.03;2.47;;;;;;;16.14;80.37;102074.31;5025768;28;20029;-72
2022/05/27 06:35:32;;;;;;;9.60;2.33;;;;;;;16.21;78.05;102076.25;5010839;28;20045;-71
2022/05/27 06:37:57;;;;;;;12.32;3.17;;;;;;;16.23;78.64;102075.44;5019175;28;20061;-71
2022/05/27 06:40:23;;;;;;;10.60;2.28;;;;;;;16.22;77.15;102063.28;5022913;28;20159;-72
2022/05/27 06:42:48;;;;;;;11.55;2.40;;;;;;;16.34;77.69;102068.78;5012955;28;20500;-72
2022/05/27 06:45:14;;;;;;;9.55;2.00;;;;;;;16.39;76.21;102071.50;5014547;28;20590;-72
2022/05/27 06:47:40;;;;;;;10.88;2.28;;;;;;;16.51;76.53;102070.91;5013367;28;20034;-72
2022/05/27 06:50:07;;;;;;;9.65;2.10;;;;;;;16.58;77.96;102068.47;5024035;28;20076;-72
2022/05/27 06:52:32;;;;;;;9.25;2.15;;;;;;;16.67;76.26;102072.09;5013889;28;20048;-72
2022/05/27 06:54:58;;;;;;;8.50;2.35;;;;;;;16.64;72.45;102075.53;5011551;28;20033;-73
2022/05/27 06:57:23;;;;;;;6.85;1.85;;;;;;;16.60;71.35;102076.28;5020887;28;20033;-73
2022/05/27 06:59:49;;;;;;;8.35;1.95;;;;;;;16.58;72.10;102078.84;5022390;28;20034;-73
2022/05/27 07:02:15;;;;;;;11.98;2.13;;;;;;;16.54;71.13;102076.16;5018125;28;20733;-73
2022/05/27 07:04:40;;;;;;;10.90;1.92;;;;;;;16.69;71.60;102075.63;5014471;28;20511;-73
2022/05/27 07:07:06;;;;;;;8.93;2.08;;;;;;;16.73;71.27;102087.84;5013643;28;20117;-73
2022/05/27 07:09:36;;;;;;;8.35;1.77;;;;;;;16.83;70.57;102080.31;5016123;28;20461;-73
2022/05/27 07:12:04;;;;;;;8.02;1.75;;;;;;;16.73;69.93;102090.44;5018844;28;20144;-74
2022/05/27 07:14:30;;;;;;;8.85;2.55;;;;;;;16.65;70.94;102086.78;5025108;28;20030;-74
2022/05/27 07:16:55;;;;;;;9.10;2.05;;;;;;;16.66;71.58;102096.31;5012845;28;20039;-74
2022/05/27 07:19:20;;;;;;;9.00;1.63;;;;;;;16.57;69.72;102087.50;5012507;28;20391;-74
2022/05/27 07:21:48;;;;;;;6.07;1.50;;;;;;;16.58;70.90;102084.03;5021296;28;20030;-74
2022/05/27 07:24:16;;;;;;;8.52;1.70;;;;;;;16.59;71.73;102096.19;5021780;28;20086;-74
2022/05/27 07:26:44;;;;;;;13.23;1.83;;;;;;;16.56;71.26;102092.63;5018372;28;20030;-74
2022/05/27 07:29:10;;;;;;;8.88;2.22;;;;;;;16.60;70.58;102090.13;5015038;28;20179;-74
2022/05/27 07:31:37;;;;;;;6.80;2.00;;;;;;;16.75;71.58;102093.97;5018783;28;20107;-74
2022/05/27 07:34:03;;;;;;;8.70;2.20;;;;;;;16.66;70.03;102096.31;5025024;28;20037;-74
2022/05/27 07:36:29;;;;;;;10.10;2.28;;;;;;;16.73;71.31;102109.50;5016417;28;20511;-74
2022/05/27 07:38:54;;;;;;;7.50;1.80;;;;;;;16.77;71.25;102100.94;5022781;28;20033;-74
2022/05/27 07:41:21;;;;;;;8.20;2.20;;;;;;;16.80;72.79;102094.94;5017568;28;20030;-74
2022/05/27 07:43:47;;;;;;;7.68;1.90;;;;;;;16.91;71.45;102096.03;5025645;28;20460;-74
2022/05/27 07:46:13;;;;;;;8.98;1.98;;;;;;;16.95;69.48;102104.81;5024778;28;20049;-74
2022/05/27 07:48:38;;;;;;;9.73;2.13;;;;;;;16.90;69.01;102099.50;5023490;28;20200;-75
2022/05/27 07:51:04;;;;;;;8.63;1.90;;;;;;;16.87;65.91;102110.72;5022016;28;20116;-74
2022/05/27 07:53:30;;;;;;;11.73;2.10;;;;;;;16.74;65.84;102116.44;5016018;28;20038;-75
2022/05/27 07:55:55;;;;;;;8.27;1.67;;;;;;;16.76;66.53;102113.91;5033615;28;20054;-74
2022/05/27 07:58:21;;;;;;;8.18;2.00;;;;;;;16.83;66.49;102113.19;5016465;28;20049;-74
2022/05/27 08:00:46;;;;;;;10.30;2.17;;;;;;;16.84;67.49;102112.34;5016069;28;20112;-74
2022/05/27 08:03:12;;;;;;;7.15;1.85;;;;;;;16.84;68.29;102105.44;5020487;28;20036;-75
2022/05/27 08:05:39;;;;;;;13.50;2.38;;;;;;;16.88;68.85;102107.25;5013546;28;20044;-74
2022/05/27 08:08:05;;;;;;;7.22;2.03;;;;;;;16.90;67.07;102112.50;5023186;28;20511;-73
2022/05/27 08:10:34;;;;;;;11.38;2.10;;;;;;;17.05;67.16;102122.34;5022948;28;20041;-72
2022/05/27 08:13:00;;;;;;;8.50;2.28;;;;;;;17.16;65.83;102119.09;5018695;28;20035;-73
2022/05/27 08:15:26;;;;;;;10.43;2.30;;;;;;;17.14;64.56;102120.81;5018953;28;20021;-70
2022/05/27 08:17:52;;;;;;;10.20;2.22;;;;;;;17.26;63.92;102111.50;5012411;28;20041;-73
2022/05/27 08:20:22;;;;;;;10.80;2.38;;;;;;;17.39;64.41;102119.59;5020468;28;20033;-71
2022/05/27 08:22:49;;;;;;;10.90;2.38;;;;;;;17.39;63.57;102124.78;5015105;28;20030;-72
2022/05/27 08:25:15;;;;;;;7.30;1.90;;;;;;;17.44;62.97;102130.09;5023526;28;20037;-72
2022/05/27 08:27:40;;;;;;;8.27;1.92;;;;;;;17.50;63.17;102132.81;5025910;28;20053;-72
2022/05/27 08:30:08;;;;;;;9.32;2.33;;;;;;;17.52;63.82;102123.31;5028124;28;20037;-72
2022/05/27 08:32:34;;;;;;;9.85;2.28;;;;;;;17.44;62.60;102135.28;5023352;28;20034;-73
2022/05/27 08:38:05;;;;;;;12.82;2.42;;;;;;;17.18;61.63;102126.97;5025025;28;20052;-74
2022/05/27 08:40:30;;;;;;;15.38;2.47;;;;;;;17.27;62.47;102136.66;5023098;28;20033;-71
2022/05/27 08:43:20;;;;;;;9.43;2.20;;;;;;;17.37;63.08;102133.41;5022072;28;20029;-72
2022/05/27 08:46:14;;;;;;;16.40;3.60;;;;;;;17.53;64.61;102137.19;5027789;28;20025;-71
2022/05/27 08:48:42;;;;;;;6.88;2.00;;;;;;;17.63;62.09;102133.91;5015132;28;20075;-72
2022/05/27 08:51:25;;;;;;;14.10;2.38;;;;;;;17.80;63.13;102139.47;5017834;28;20056;-72
2022/05/27 08:53:55;;;;;;;11.30;2.17;;;;;;;17.87;61.33;102126.59;5016515;28;20068;-73
2022/05/27 08:59:27;;;;;;;11.18;2.50;;;;;;;17.70;59.03;102154.88;5018010;28;20110;-73
2022/05/27 09:01:59;;;;;;;10.02;2.10;;;;;;;17.52;58.02;102136.31;5014104;28;20037;-75
2022/05/27 09:04:33;;;;;;;9.73;2.15;;;;;;;17.45;58.05;102142.22;5013096;28;20383;-73
2022/05/27 09:07:11;;;;;;;12.50;2.65;;;;;;;17.52;58.03;102138.03;5018857;28;20025;-72
2022/05/27 09:09:37;;;;;;;14.55;2.88;;;;;;;17.63;56.71;102146.94;5018862;28;20025;-73
2022/05/27 09:12:22;;;;;;;9.30;2.20;;;;;;;17.78;57.41;102149.88;5019576;28;20068;-71
2022/05/27 09:15:14;;;;;;;11.68;2.30;;;;;;;17.89;57.05;102153.53;5023081;28;20022;-72
2022/05/27 09:18:02;;;;;;;11.93;2.47;;;;;;;17.98;56.72;102150.22;5017922;28;20028;-71
2022/05/27 09:21:00;;;;;;;6.30;1.90;;;;;;;17.97;56.05;102145.00;5019534;28;20025;-73
2022/05/27 09:23:47;;;;;;;9.18;2.50;;;;;;;17.91;56.31;102156.16;5021706;28;20104;-72
2022/05/27 09:26:28;;;;;;;9.35;2.33;;;;;;;17.84;56.45;102165.59;5016821;28;20018;-71
2022/05/27 09:29:18;;;;;;;8.93;2.28;;;;;;;17.82;56.51;102161.19;5014148;28;20182;-71
2022/05/27 09:31:49;;;;;;;10.93;2.33;;;;;;;17.79;56.50;102161.16;5015705;28;20033;-71
2022/05/27 09:34:15;;;;;;;11.85;2.45;;;;;;;17.75;56.00;102173.22;5015551;28;20620;-72
2022/05/27 09:36:53;;;;;;;11.70;2.17;;;;;;;17.79;55.32;102171.56;5017877;28;20030;-72
2022/05/27 09:39:21;;;;;;;11.90;2.37;;;;;;;17.92;55.31;102169.22;5018209;28;20043;-71
2022/05/27 09:42:25;;;;;;;11.65;2.60;;;;;;;18.12;55.64;102169.56;5020404;28;20034;-69
2022/05/27 09:44:55;;;;;;;8.38;2.25;;;;;;;18.15;54.22;102174.84;5023611;28;20551;-72
2022/05/27 09:47:25;;;;;;;8.48;2.50;;;;;;;18.26;54.43;102171.53;5016389;28;20468;-71
2022/05/27 09:49:58;;;;;;;11.63;2.78;;;;;;;18.28;54.29;102180.25;5015223;28;20021;-72
2022/05/27 09:52:27;;;;;;;11.57;2.70;;;;;;;18.33;55.20;102187.31;5018349;28;20091;-71
2022/05/27 09:54:59;;;;;;;9.10;2.05;;;;;;;18.28;54.31;102182.84;5020437;28;20037;-71
2022/05/27 09:57:30;;;;;;;10.52;2.55;;;;;;;18.35;55.25;102177.78;5014900;28;20025;-71
2022/05/27 10:00:01;;;;;;;7.57;2.10;;;;;;;18.54;54.30;102189.38;5016025;28;20053;-72
2022/05/27 10:02:28;;;;;;;8.25;2.05;;;;;;;18.71;52.21;102164.50;5018458;28;20125;-72
2022/05/27 10:05:05;;;;;;;8.85;2.17;;;;;;;18.80;52.15;102174.16;5018320;28;20041;-72
2022/05/27 10:07:41;;;;;;;8.90;2.42;;;;;;;18.64;49.67;102174.78;5019450;28;20490;-71
2022/05/27 10:10:34;;;;;;;6.95;2.20;;;;;;;18.65;49.47;102180.00;5022167;28;20021;-70
2022/05/27 10:13:23;;;;;;;11.52;2.40;;;;;;;18.59;48.85;102185.13;5014921;28;20132;-71
2022/05/27 10:15:49;;;;;;;9.07;2.10;;;;;;;18.34;47.38;102185.56;5016240;28;20038;-73
2022/05/27 10:18:14;;;;;;;8.75;2.42;;;;;;;18.35;48.40;102200.34;5018206;28;20048;-72
2022/05/27 10:20:41;;;;;;;9.07;2.53;;;;;;;18.41;47.84;102188.28;5018950;28;20033;-72
2022/05/27 10:23:19;;;;;;;11.85;2.60;;;;;;;18.66;49.39;102183.47;5017412;28;20069;-72
2022/05/27 10:25:45;;;;;;;9.05;2.30;;;;;;;18.78;47.99;102177.63;5011523;28;20034;-73
2022/05/27 10:28:27;;;;;;;10.05;3.13;;;;;;;18.92;48.57;102174.34;5014703;28;20053;-73
2022/05/27 10:31:02;;;;;;;9.10;2.35;;;;;;;18.95;46.90;102177.00;5016681;28;20358;-73
2022/05/27 10:33:38;;;;;;;13.75;2.92;;;;;;;18.95;46.99;102184.84;5013470;28;20725;-73
2022/05/27 10:36:31;;;;;;;10.02;2.42;;;;;;;18.87;47.31;102180.34;5017595;28;20068;-71
2022/05/27 10:39:10;;;;;;;9.63;2.25;;;;;;;18.79;47.80;102182.84;5020808;28;20109;-70
2022/05/27 10:42:10;;;;;;;8.63;1.98;;;;;;;19.05;49.32;102183.25;5020193;28;20038;-70
2022/05/27 10:45:06;;;;;;;9.20;2.25;;;;;;;19.26;47.08;102187.88;5016325;28;20055;-72
2022/05/27 10:47:51;;;;;;;8.48;2.42;;;;;;;19.43;47.38;102177.66;5019760;28;20033;-69
2022/05/27 10:50:30;;;;;;;10.95;2.25;;;;;;;19.34;47.03;102177.53;5017916;28;20029;-68
2022/05/27 10:52:55;;;;;;;14.50;2.63;;;;;;;19.25;46.53;102188.72;5015853;28;20026;-69
2022/05/27 10:56:06;;;;;;;9.88;2.53;;;;;;;19.32;47.01;102181.84;5023774;28;20033;-71
2022/05/27 11:04:47;;;;;;;12.50;2.20;;;;;;;19.53;45.57;102192.53;5013832;28;20526;-72
2022/05/27 11:07:24;;;;;;;7.35;2.15;;;;;;;19.46;43.90;102198.56;5014243;28;20724;-72
2022/05/27 11:10:22;;;;;;;9.82;2.10;;;;;;;19.65;45.63;102192.72;5013217;28;20032;-70
2022/05/27 11:16:02;;;;;;;9.00;2.00;;;;;;;19.66;44.22;102188.41;5008734;28;20107;-72
2022/05/27 11:18:30;;;;;;;6.70;1.90;;;;;;;19.70;45.29;102201.50;5011408;28;20381;-68
2022/05/27 11:21:17;;;;;;;10.50;2.13;;;;;;;19.66;43.29;102193.63;5015127;28;20049;-67
2022/05/27 11:24:09;;;;;;;13.82;2.78;;;;;;;19.40;44.64;102198.47;5010468;28;20468;-71
2022/05/27 11:26:48;;;;;;;11.68;2.40;;;;;;;19.40;45.76;102191.53;5008034;28;20045;-70
2022/05/27 11:29:35;;;;;;;10.23;2.10;;;;;;;19.45;45.65;102205.50;5008792;28;20076;-73
2022/05/27 11:32:05;;;;;;;9.80;2.08;;;;;;;19.53;46.48;102189.94;5012788;28;20037;-70
2022/05/27 11:34:39;;;;;;;11.05;2.42;;;;;;;19.58;45.91;102193.50;5009602;28;20041;-73
2022/05/27 11:37:29;;;;;;;8.65;1.90;;;;;;;19.66;45.35;102204.06;5023823;28;20032;-71
2022/05/27 11:40:33;;;;;;;8.65;2.08;;;;;;;19.65;44.32;102199.69;5020449;28;20121;-72
2022/05/27 11:43:40;;;;;;;8.63;2.10;;;;;;;19.53;43.25;102208.19;4989323;28;20048;-72
2022/05/27 11:46:31;;;;;;;7.78;2.25;;;;;;;19.45;43.83;102209.84;4998773;28;20042;-73
2022/05/27 11:49:08;;;;;;;8.60;1.80;;;;;;;19.36;43.22;102226.28;5007363;28;20064;-73
2022/05/27 11:52:09;;;;;;;8.13;2.30;;;;;;;19.27;42.37;102208.75;5006986;28;21049;-76
2022/05/27 11:54:37;;;;;;;10.90;2.08;;;;;;;19.22;42.50;102223.44;5007991;28;20026;-71
2022/05/27 11:57:15;;;;;;;9.48;1.95;;;;;;;19.32;43.45;102219.25;5010748;28;20518;-72
2022/05/27 11:59:59;;;;;;;17.63;4.40;;;;;;;19.41;43.87;102211.53;5016679;28;20065;-71
2022/05/27 12:02:38;;;;;;;26.25;3.42;;;;;;;19.44;43.47;102221.16;5009777;28;20132;-70
2022/05/27 12:05:16;;;;;;;8.57;2.30;;;;;;;19.41;44.00;102215.88;5006261;28;20033;-71
2022/05/27 12:07:55;;;;;;;9.07;1.88;;;;;;;19.48;44.65;102207.28;5007853;28;20400;-69